createdAt,value
2023-01-15T00:00:00.247Z,1.20
2023-01-15T00:02:29.262Z,1.23
2023-01-15T00:04:58.077Z,1.30
2023-01-15T00:07:28.294Z,1.37
2023-01-15T00:09:57.208Z,1.30
2023-01-15T00:12:26.171Z,1.37
2023-01-15T00:14:55.089Z,1.40
2023-01-15T00:17:23.931Z,1.20
2023-01-15T00:19:52.755Z,1.40
2023-01-15T00:22:21.563Z,1.27
2023-01-15T00:25:09.413Z,1.40
2023-01-15T00:27:41.342Z,1.50
2023-01-15T00:30:13.580Z,1.30
2023-01-15T00:32:43.350Z,1.40
2023-01-15T00:35:15.088Z,1.30
2023-01-15T00:37:44.241Z,1.30
2023-01-15T00:40:17.831Z,1.37
2023-01-15T00:42:54.345Z,1.30
2023-01-15T00:45:23.820Z,1.30
2023-01-15T00:47:52.978Z,1.43
2023-01-15T00:50:23.205Z,1.33
2023-01-15T00:52:52.040Z,1.37
2023-01-15T00:55:24.036Z,1.30
2023-01-15T00:57:54.913Z,1.20
2023-01-15T01:00:24.294Z,1.27
2023-01-15T01:02:53.372Z,1.07
2023-01-15T01:05:22.133Z,1.27
2023-01-15T01:07:51.069Z,1.17
2023-01-15T01:10:19.960Z,1.40
2023-01-15T01:12:52.109Z,1.10
2023-01-15T01:15:21.216Z,1.10
2023-01-15T01:17:50.160Z,1.20
2023-01-15T01:20:20.194Z,1.30
2023-01-15T01:22:50.734Z,1.20
2023-01-15T01:25:19.758Z,1.30
2023-01-15T01:27:50.539Z,1.10
2023-01-15T01:30:19.595Z,1.07
2023-01-15T01:32:48.652Z,1.20
2023-01-15T01:35:18.534Z,1.20
2023-01-15T01:37:51.341Z,1.17
2023-01-15T01:40:20.986Z,1.10
2023-01-15T01:42:51.350Z,1.10
2023-01-15T01:45:27.928Z,1.17
2023-01-15T01:48:01.105Z,1.00
2023-01-15T01:50:31.145Z,1.10
2023-01-15T01:53:05.045Z,1.00
2023-01-15T01:55:35.916Z,1.00
2023-01-15T01:58:10.977Z,1.00
2023-01-15T02:00:44.794Z,0.90
2023-01-15T02:03:14.394Z,1.30
2023-01-15T02:05:50.417Z,0.90
2023-01-15T02:08:20.140Z,0.90
2023-01-15T02:10:53.321Z,1.00
2023-01-15T02:13:32.806Z,0.70
2023-01-15T02:16:08.433Z,0.80
2023-01-15T02:18:44.923Z,0.90
2023-01-15T02:21:24.891Z,0.80
2023-01-15T02:24:08.929Z,0.80
2023-01-15T02:27:03.669Z,0.80
2023-01-15T02:29:44.213Z,0.83
2023-01-15T02:32:19.149Z,0.80
2023-01-15T02:34:54.261Z,0.83
2023-01-15T02:37:28.070Z,0.90
2023-01-15T02:39:59.288Z,0.70
2023-01-15T02:42:32.434Z,0.60
2023-01-15T02:45:04.907Z,0.70
2023-01-15T02:47:38.649Z,0.90
2023-01-15T02:50:14.185Z,0.70
2023-01-15T02:52:46.974Z,0.60
2023-01-15T02:55:23.927Z,0.60
2023-01-15T02:57:58.488Z,0.80
2023-01-15T03:00:31.407Z,0.70
2023-01-15T03:03:04.634Z,0.70
2023-01-15T03:05:40.091Z,0.80
2023-01-15T03:08:10.969Z,0.73
2023-01-15T03:10:52.338Z,0.60
2023-01-15T03:13:29.205Z,0.60
2023-01-15T03:16:19.969Z,0.70
2023-01-15T03:18:53.974Z,0.60
2023-01-15T03:21:27.981Z,0.70
2023-01-15T03:24:02.524Z,0.70
2023-01-15T03:26:31.439Z,0.73
2023-01-15T03:29:04.117Z,0.73
2023-01-15T03:31:33.602Z,0.57
2023-01-15T03:34:03.178Z,0.70
2023-01-15T03:36:32.380Z,0.80
2023-01-15T03:39:04.320Z,0.70
2023-01-15T03:42:00.806Z,0.63
2023-01-15T03:44:40.632Z,0.63
2023-01-15T03:47:26.256Z,0.80
2023-01-15T03:50:04.138Z,0.77
2023-01-15T03:52:47.238Z,0.70
2023-01-15T03:55:20.370Z,0.60
2023-01-15T03:58:00.517Z,0.80
2023-01-15T04:00:38.195Z,0.60
2023-01-15T04:03:10.960Z,0.57
2023-01-15T04:05:41.742Z,0.57
2023-01-15T04:08:11.746Z,0.60
2023-01-15T04:10:51.451Z,0.73
2023-01-15T04:13:20.274Z,0.80
2023-01-15T04:15:51.125Z,0.80
2023-01-15T04:18:21.177Z,0.70
2023-01-15T04:20:50.264Z,0.70
2023-01-15T04:23:19.399Z,0.70
2023-01-15T04:25:48.293Z,0.57
2023-01-15T04:28:17.392Z,0.63
2023-01-15T04:30:46.665Z,0.70
2023-01-15T04:33:17.236Z,0.63
2023-01-15T04:35:47.676Z,0.70
2023-01-15T04:38:18.133Z,0.60
2023-01-15T04:41:04.425Z,0.60
2023-01-15T04:43:50.782Z,0.70
2023-01-15T04:46:22.997Z,0.70
2023-01-15T04:48:53.967Z,0.70
2023-01-15T04:51:22.883Z,0.90
2023-01-15T04:53:54.577Z,0.70
2023-01-15T04:56:23.598Z,0.70
2023-01-15T04:58:52.493Z,0.53
2023-01-15T05:01:21.759Z,0.70
2023-01-15T05:03:50.856Z,0.80
2023-01-15T05:06:21.215Z,0.80
2023-01-15T05:08:50.214Z,0.60
2023-01-15T05:11:19.140Z,0.70
2023-01-15T05:13:48.062Z,0.80
2023-01-15T05:16:20.999Z,0.60
2023-01-15T05:18:50.240Z,0.60
2023-01-15T05:21:22.166Z,0.73
2023-01-15T05:23:52.011Z,0.60
2023-01-15T05:26:21.965Z,0.70
2023-01-15T05:28:51.409Z,0.70
2023-01-15T05:31:20.937Z,0.70
2023-01-15T05:33:50.483Z,0.70
2023-01-15T05:36:22.766Z,0.60
2023-01-15T05:38:54.757Z,0.60
2023-01-15T05:41:41.515Z,0.70
2023-01-15T05:44:12.375Z,0.60
2023-01-15T05:46:43.125Z,0.70
2023-01-15T05:49:14.886Z,0.80
2023-01-15T05:51:45.740Z,0.70
2023-01-15T05:54:16.152Z,0.70
2023-01-15T05:56:46.179Z,0.60
2023-01-15T05:59:15.947Z,0.70
2023-01-15T06:01:44.973Z,0.60
2023-01-15T06:04:14.843Z,0.60
2023-01-15T06:06:45.619Z,0.70
2023-01-15T06:09:14.648Z,0.70
2023-01-15T06:11:43.713Z,0.80
2023-01-15T06:14:13.261Z,0.80
2023-01-15T06:16:42.483Z,0.70
2023-01-15T06:19:13.906Z,0.77
2023-01-15T06:21:44.793Z,0.90
2023-01-15T06:24:16.709Z,0.57
2023-01-15T06:26:46.090Z,0.50
2023-01-15T06:29:19.183Z,0.53
2023-01-15T06:31:49.595Z,0.40
2023-01-15T06:34:18.895Z,0.57
2023-01-15T06:36:49.421Z,0.60
2023-01-15T06:39:18.242Z,0.47
2023-01-15T06:42:04.597Z,0.50
2023-01-15T06:44:50.950Z,0.50
2023-01-15T06:47:22.689Z,0.40
2023-01-15T06:49:54.059Z,0.40
2023-01-15T06:52:25.086Z,0.50
2023-01-15T06:54:54.444Z,0.50
2023-01-15T06:57:23.563Z,0.43
2023-01-15T06:59:53.204Z,0.50
2023-01-15T07:02:22.706Z,0.60
2023-01-15T07:04:52.237Z,0.50
2023-01-15T07:07:23.567Z,0.57
2023-01-15T07:09:52.366Z,0.60
2023-01-15T07:12:21.257Z,0.60
2023-01-15T07:14:50.318Z,0.70
2023-01-15T07:17:19.083Z,0.60
2023-01-15T07:19:48.417Z,0.60
2023-01-15T07:22:17.160Z,0.70
2023-01-15T07:24:47.489Z,0.60
2023-01-15T07:27:16.157Z,0.70
2023-01-15T07:29:44.997Z,0.50
2023-01-15T07:32:13.796Z,0.50
2023-01-15T07:34:42.700Z,0.80
2023-01-15T07:37:11.735Z,0.70
2023-01-15T07:39:40.496Z,0.50
2023-01-15T07:42:30.222Z,0.50
2023-01-15T07:45:15.926Z,0.40
2023-01-15T07:48:02.217Z,0.50
2023-01-15T07:50:31.197Z,0.40
2023-01-15T07:52:59.985Z,0.60
2023-01-15T07:55:28.840Z,0.60
2023-01-15T07:57:59.059Z,0.60
2023-01-15T08:00:27.880Z,0.60
2023-01-15T08:02:56.638Z,0.80
2023-01-15T08:05:25.282Z,0.90
2023-01-15T08:07:54.144Z,0.93
2023-01-15T08:10:22.859Z,0.87
2023-01-15T08:13:09.661Z,1.10
2023-01-15T08:15:44.215Z,0.80
2023-01-15T08:18:13.154Z,0.80
2023-01-15T08:20:41.925Z,0.90
2023-01-15T08:23:10.870Z,0.97
2023-01-15T08:25:39.662Z,0.70
2023-01-15T08:28:08.452Z,0.73
2023-01-15T08:30:37.549Z,0.70
2023-01-15T08:33:07.796Z,0.83
2023-01-15T08:35:36.456Z,0.80
2023-01-15T08:38:08.531Z,0.80
2023-01-15T08:40:57.945Z,0.83
2023-01-15T08:43:27.319Z,0.77
2023-01-15T08:45:59.300Z,0.73
2023-01-15T08:48:31.532Z,0.70
2023-01-15T08:51:00.776Z,0.70
2023-01-15T08:53:29.923Z,0.70
2023-01-15T08:55:58.743Z,0.83
2023-01-15T08:58:30.657Z,1.10
2023-01-15T09:01:06.521Z,0.90
2023-01-15T09:03:37.517Z,0.90
2023-01-15T09:06:06.982Z,0.87
2023-01-15T09:08:36.000Z,1.00
2023-01-15T09:11:05.969Z,1.00
2023-01-15T09:13:35.259Z,1.03
2023-01-15T09:16:06.426Z,1.00
2023-01-15T09:18:38.037Z,1.00
2023-01-15T09:21:07.254Z,1.10
2023-01-15T09:23:36.222Z,0.83
2023-01-15T09:26:08.964Z,0.90
2023-01-15T09:28:37.718Z,0.80
2023-01-15T09:31:06.735Z,0.80
2023-01-15T09:33:36.915Z,0.77
2023-01-15T09:36:07.083Z,0.80
2023-01-15T09:38:36.015Z,0.70
2023-01-15T09:41:33.501Z,0.63
2023-01-15T09:44:11.577Z,0.80
2023-01-15T09:46:49.601Z,0.90
2023-01-15T09:49:34.191Z,0.70
2023-01-15T09:52:13.315Z,0.80
2023-01-15T09:54:55.402Z,0.80
2023-01-15T09:57:26.354Z,0.80
2023-01-15T10:00:02.180Z,0.70
2023-01-15T10:02:45.162Z,0.93
2023-01-15T10:05:23.678Z,0.87
2023-01-15T10:08:00.478Z,1.20
2023-01-15T10:10:35.327Z,1.73
2023-01-15T10:13:11.160Z,4.27
2023-01-15T10:15:43.443Z,14.37
2023-01-15T10:18:17.530Z,7.50
2023-01-15T10:21:12.312Z,15.07
2023-01-15T10:23:51.974Z,2.30
2023-01-15T10:26:32.963Z,1.20
2023-01-15T10:29:04.850Z,1.20
2023-01-15T10:31:51.542Z,1.73
2023-01-15T10:34:42.579Z,1.00
2023-01-15T10:37:18.286Z,1.57
2023-01-15T10:39:56.303Z,1.33
2023-01-15T10:42:36.808Z,0.80
2023-01-15T10:45:12.603Z,2.10
2023-01-15T10:47:44.074Z,1.30
2023-01-15T10:50:18.920Z,1.10
2023-01-15T10:52:52.474Z,1.20
2023-01-15T10:55:27.581Z,1.40
2023-01-15T10:58:10.158Z,3.60
2023-01-15T11:00:40.381Z,3.30
2023-01-15T11:03:16.679Z,1.40
2023-01-15T11:05:47.227Z,1.27
2023-01-15T11:11:44.495Z,0.90
2023-01-15T11:14:30.708Z,0.93
2023-01-15T11:17:16.986Z,1.20
2023-01-15T11:19:46.104Z,0.90
2023-01-15T11:22:18.125Z,1.10
2023-01-15T11:24:51.822Z,0.87
2023-01-15T11:27:26.009Z,1.20
2023-01-15T11:29:56.968Z,1.90
2023-01-15T11:32:30.999Z,1.90
2023-01-15T11:35:02.253Z,1.60
2023-01-15T11:37:32.084Z,1.40
2023-01-15T11:40:18.267Z,1.40
2023-01-15T11:43:02.158Z,1.50
2023-01-15T11:45:48.619Z,2.30
2023-01-15T11:48:36.463Z,1.73
2023-01-15T11:51:10.053Z,2.37
2023-01-15T11:53:43.641Z,1.70
2023-01-15T11:56:18.839Z,2.40
2023-01-15T11:58:50.437Z,3.87
2023-01-15T12:01:26.271Z,3.20
2023-01-15T12:03:55.500Z,2.10
2023-01-15T12:06:25.356Z,2.10
2023-01-15T12:09:02.850Z,2.13
2023-01-15T12:11:52.723Z,2.30
2023-01-15T12:14:44.477Z,2.00
2023-01-15T12:17:27.144Z,2.93
2023-01-15T12:20:05.222Z,2.60
2023-01-15T12:22:46.809Z,2.73
2023-01-15T12:25:42.290Z,1.77
2023-01-15T12:28:17.409Z,1.17
2023-01-15T12:30:56.388Z,1.20
2023-01-15T12:33:37.259Z,1.00
2023-01-15T12:36:12.199Z,1.13
2023-01-15T12:38:49.164Z,1.03
2023-01-15T12:41:22.439Z,1.10
2023-01-15T12:44:15.476Z,1.10
2023-01-15T12:46:46.055Z,1.20
2023-01-15T12:49:26.514Z,1.23
2023-01-15T12:52:02.834Z,1.03
2023-01-15T12:54:37.187Z,1.00
2023-01-15T12:57:14.580Z,0.80
2023-01-15T12:59:50.206Z,0.80
2023-01-15T13:02:24.203Z,1.00
2023-01-15T13:04:57.415Z,0.73
2023-01-15T13:07:34.445Z,1.37
2023-01-15T13:10:08.570Z,1.20
2023-01-15T13:12:37.498Z,0.90
2023-01-15T13:15:08.920Z,0.90
2023-01-15T13:17:52.678Z,0.90
2023-01-15T13:20:39.695Z,0.93
2023-01-15T13:23:11.833Z,0.80
2023-01-15T13:26:03.625Z,0.97
2023-01-15T13:28:54.501Z,0.90
2023-01-15T13:31:46.287Z,1.00
2023-01-15T13:34:24.860Z,1.20
2023-01-15T13:36:56.142Z,1.00
2023-01-15T13:39:30.009Z,1.20
2023-01-15T13:42:16.655Z,1.30
2023-01-15T13:44:49.808Z,1.30
2023-01-15T13:47:24.683Z,1.17
2023-01-15T13:49:56.912Z,1.10
2023-01-15T13:52:29.930Z,1.10
2023-01-15T13:55:02.019Z,1.00
2023-01-15T13:57:36.289Z,0.80
2023-01-15T14:00:07.663Z,0.90
2023-01-15T14:02:53.915Z,0.90
2023-01-15T14:05:30.834Z,0.90
2023-01-15T14:08:01.491Z,0.90
2023-01-15T14:10:40.598Z,0.90
2023-01-15T14:13:32.451Z,1.00
2023-01-15T14:16:12.181Z,0.97
2023-01-15T14:19:00.656Z,0.83
2023-01-15T14:21:46.123Z,1.23
2023-01-15T14:24:37.767Z,1.20
2023-01-15T14:27:10.111Z,1.20
2023-01-15T14:30:10.666Z,1.47
2023-01-15T14:32:51.246Z,1.10
2023-01-15T14:35:24.031Z,1.40
2023-01-15T14:37:55.469Z,1.47
2023-01-15T14:40:26.881Z,1.40
2023-01-15T14:43:22.694Z,1.50
2023-01-15T14:45:53.220Z,1.10
2023-01-15T14:48:36.347Z,1.20
2023-01-15T14:51:16.136Z,1.10
2023-01-15T14:53:49.499Z,1.07
2023-01-15T14:56:22.770Z,1.10
2023-01-15T14:58:56.122Z,1.10
2023-01-15T15:01:43.302Z,1.30
2023-01-15T15:04:21.374Z,1.47
2023-01-15T15:06:55.452Z,1.30
2023-01-15T15:09:35.541Z,1.30
2023-01-15T15:12:25.072Z,1.20
2023-01-15T15:15:03.966Z,1.50
2023-01-15T15:17:40.809Z,1.50
2023-01-15T15:20:22.859Z,1.60
2023-01-15T15:22:56.673Z,1.70
2023-01-15T15:25:28.863Z,2.00
2023-01-15T15:28:05.552Z,1.90
2023-01-15T15:30:37.255Z,2.00
2023-01-15T15:33:07.339Z,1.90
2023-01-15T15:35:36.495Z,2.20
2023-01-15T15:38:07.823Z,1.77
2023-01-15T15:40:38.518Z,1.40
2023-01-15T15:43:33.281Z,1.60
2023-01-15T15:46:34.080Z,1.47
2023-01-15T15:49:05.841Z,1.50
2023-01-15T15:51:37.812Z,1.63
2023-01-15T15:54:15.539Z,1.77
2023-01-15T15:56:49.511Z,1.73
2023-01-15T15:59:31.535Z,1.67
2023-01-15T16:02:03.215Z,1.90
2023-01-15T16:04:31.996Z,1.83
2023-01-15T16:07:00.797Z,2.00
2023-01-15T16:09:31.041Z,2.10
2023-01-15T16:12:07.447Z,2.23
2023-01-15T16:14:38.538Z,2.60
2023-01-15T16:17:33.594Z,2.33
2023-01-15T16:20:02.544Z,1.97
2023-01-15T16:22:33.660Z,2.00
2023-01-15T16:25:03.872Z,1.90
2023-01-15T16:27:35.976Z,2.20
2023-01-15T16:30:05.526Z,2.03
2023-01-15T16:32:37.153Z,1.97
2023-01-15T16:35:08.641Z,2.20
2023-01-15T16:37:37.901Z,1.60
2023-01-15T16:40:10.484Z,1.80
2023-01-15T16:42:43.204Z,2.00
2023-01-15T16:45:23.008Z,2.23
2023-01-15T16:48:18.271Z,2.10
2023-01-15T16:50:47.213Z,2.00
2023-01-15T16:53:38.461Z,2.20
2023-01-15T16:56:27.066Z,2.23
2023-01-15T16:58:55.732Z,2.30
2023-01-15T17:01:36.737Z,2.20
2023-01-15T17:04:16.583Z,2.40
2023-01-15T17:06:45.381Z,2.10
2023-01-15T17:09:16.243Z,2.30
2023-01-15T17:11:51.889Z,1.97
2023-01-15T17:14:23.711Z,1.60
2023-01-15T17:17:19.315Z,1.70
2023-01-15T17:19:48.253Z,2.07
2023-01-15T17:22:20.335Z,2.10
2023-01-15T17:24:50.188Z,1.60
2023-01-15T17:27:20.701Z,1.90
2023-01-15T17:29:49.579Z,1.67
2023-01-15T17:32:22.291Z,1.93
2023-01-15T17:34:51.220Z,1.90
2023-01-15T17:37:21.756Z,1.70
2023-01-15T17:39:50.406Z,2.00
2023-01-15T17:42:21.661Z,2.07
2023-01-15T17:44:50.326Z,2.47
2023-01-15T17:47:19.472Z,2.50
2023-01-15T17:49:48.257Z,2.63
2023-01-15T17:52:23.455Z,2.13
2023-01-15T17:55:09.672Z,2.23
2023-01-15T17:57:57.647Z,2.43
2023-01-15T18:00:43.515Z,2.43
2023-01-15T18:03:36.095Z,2.70
2023-01-15T18:06:05.817Z,2.37
2023-01-15T18:08:35.550Z,2.20
2023-01-15T18:11:04.428Z,2.20
2023-01-15T18:13:34.737Z,2.40
2023-01-15T18:16:04.265Z,2.20
2023-01-15T18:18:33.091Z,1.87
2023-01-15T18:21:20.911Z,2.20
2023-01-15T18:23:49.813Z,2.47
2023-01-15T18:26:18.560Z,2.40
2023-01-15T18:29:43.753Z,2.20
2023-01-15T18:32:14.029Z,2.50
2023-01-15T18:34:42.687Z,2.20
2023-01-15T18:37:13.300Z,2.20
2023-01-15T18:39:42.095Z,2.50
2023-01-15T18:42:29.505Z,2.70
2023-01-15T18:45:15.220Z,2.43
2023-01-15T18:47:45.396Z,2.63
2023-01-15T18:50:13.961Z,2.20
2023-01-15T18:52:51.640Z,2.57
2023-01-15T18:55:21.407Z,2.63
2023-01-15T18:57:50.121Z,2.40
2023-01-15T19:00:19.852Z,2.20
2023-01-15T19:02:50.411Z,2.47
2023-01-15T19:05:20.024Z,2.60
2023-01-15T19:07:49.036Z,2.60
2023-01-15T19:10:18.923Z,2.87
2023-01-15T19:12:47.593Z,2.40
2023-01-15T19:15:38.439Z,2.40
2023-01-15T19:18:29.039Z,2.37
2023-01-15T19:20:57.966Z,2.60
2023-01-15T19:23:26.545Z,2.37
2023-01-15T19:25:55.059Z,2.77
2023-01-15T19:28:23.576Z,2.27
2023-01-15T19:31:06.271Z,2.63
2023-01-15T19:33:40.315Z,2.20
2023-01-15T19:36:09.283Z,2.17
2023-01-15T19:38:39.394Z,2.10
2023-01-15T19:41:29.571Z,1.73
2023-01-15T19:44:15.551Z,2.00
2023-01-15T19:47:01.637Z,1.60
2023-01-15T19:49:53.421Z,2.20
2023-01-15T19:52:38.030Z,1.87
2023-01-15T19:55:10.683Z,2.00
2023-01-15T19:57:39.869Z,1.80
2023-01-15T20:00:11.347Z,1.83
2023-01-15T20:02:40.268Z,1.70
2023-01-15T20:05:12.009Z,2.00
2023-01-15T20:07:41.472Z,1.70
2023-01-15T20:10:12.073Z,1.80
2023-01-15T20:13:00.785Z,2.13
2023-01-15T20:15:30.431Z,2.00
2023-01-15T20:17:59.491Z,1.87
2023-01-15T20:20:29.830Z,1.70
2023-01-15T20:22:59.717Z,1.73
2023-01-15T20:25:29.424Z,1.50
2023-01-15T20:27:59.900Z,1.40
2023-01-15T20:30:29.122Z,1.27
2023-01-15T20:32:59.112Z,1.50
2023-01-15T20:35:31.872Z,1.20
2023-01-15T20:38:00.781Z,1.30
2023-01-15T20:40:29.781Z,1.27
2023-01-15T20:43:15.693Z,1.30
2023-01-15T20:45:44.278Z,1.20
2023-01-15T20:48:30.073Z,1.40
2023-01-15T20:51:02.891Z,1.67
2023-01-15T20:53:34.693Z,1.30
2023-01-15T20:56:04.110Z,1.70
2023-01-15T20:58:32.878Z,1.53
2023-01-15T21:01:04.844Z,1.50
2023-01-15T21:03:33.678Z,1.50
2023-01-15T21:06:05.145Z,1.60
2023-01-15T21:08:34.262Z,1.60
2023-01-15T21:11:03.243Z,1.80
2023-01-15T21:13:31.849Z,1.53
2023-01-15T21:16:02.912Z,1.50
2023-01-15T21:18:33.067Z,1.60
2023-01-15T21:21:01.724Z,1.63
2023-01-15T21:23:31.859Z,1.80
2023-01-15T21:26:01.923Z,1.50
2023-01-15T21:28:30.911Z,1.80
2023-01-15T21:31:25.854Z,1.73
2023-01-15T21:33:54.683Z,1.67
2023-01-15T21:36:23.393Z,1.90
2023-01-15T21:38:54.658Z,2.10
2023-01-15T21:41:45.015Z,2.00
2023-01-15T21:44:33.706Z,1.90
2023-01-15T21:47:04.200Z,1.90
2023-01-15T21:49:33.600Z,2.13
2023-01-15T21:52:03.652Z,1.77
2023-01-15T21:54:33.895Z,2.20
2023-01-15T21:57:03.849Z,2.13
2023-01-15T21:59:32.817Z,2.30
2023-01-15T22:02:02.138Z,1.87
2023-01-15T22:04:34.716Z,1.90
2023-01-15T22:07:03.490Z,1.90
2023-01-15T22:09:33.715Z,1.90
2023-01-15T22:12:02.316Z,1.93
2023-01-15T22:14:33.389Z,1.80
2023-01-15T22:17:03.975Z,1.93
2023-01-15T22:19:33.963Z,2.00
2023-01-15T22:22:04.854Z,1.83
2023-01-15T22:24:35.933Z,1.70
2023-01-15T22:27:07.084Z,2.20
2023-01-15T22:29:40.247Z,1.60
2023-01-15T22:32:11.396Z,2.20
2023-01-15T22:34:40.175Z,1.70
2023-01-15T22:37:09.136Z,1.67
2023-01-15T22:39:39.376Z,1.70
2023-01-15T22:42:27.969Z,1.63
2023-01-15T22:44:59.898Z,1.80
2023-01-15T22:47:29.243Z,2.00
2023-01-15T22:49:57.989Z,2.00
2023-01-15T22:52:27.495Z,2.00
2023-01-15T22:54:57.853Z,1.60
2023-01-15T22:57:26.530Z,1.80
2023-01-15T22:59:55.133Z,1.73
2023-01-15T23:02:43.760Z,1.40
2023-01-15T23:05:13.357Z,1.53
2023-01-15T23:07:42.173Z,1.70
2023-01-15T23:10:14.278Z,1.60
2023-01-15T23:12:43.959Z,1.70
2023-01-15T23:15:14.289Z,1.90
2023-01-15T23:17:43.943Z,2.00
2023-01-15T23:20:14.604Z,1.97
2023-01-15T23:22:43.151Z,1.70
2023-01-15T23:25:13.260Z,1.90
2023-01-15T23:27:42.100Z,1.83
2023-01-15T23:30:12.050Z,1.90
2023-01-15T23:32:42.357Z,1.90
2023-01-15T23:35:11.561Z,1.80
2023-01-15T23:37:40.366Z,2.07
2023-01-15T23:40:10.641Z,1.70
2023-01-15T23:42:58.347Z,1.47
2023-01-15T23:45:44.535Z,1.60
2023-01-15T23:48:13.328Z,1.50
2023-01-15T23:50:41.914Z,1.50
2023-01-15T23:53:10.479Z,1.80
2023-01-15T23:55:39.209Z,1.50
2023-01-15T23:58:09.329Z,1.60
